sensor_id;sensor_type;location;lat;lon;timestamp;temperature;humidity
68922;DHT22;55959;51.244;5.724;2022-12-18T00:03:47;-0.90;72.90
68922;DHT22;55959;51.244;5.724;2022-12-18T00:06:14;-1.00;72.90
68922;DHT22;55959;51.244;5.724;2022-12-18T00:08:41;-1.00;72.80
68922;DHT22;55959;51.244;5.724;2022-12-18T00:11:10;-1.00;72.80
68922;DHT22;55959;51.244;5.724;2022-12-18T00:13:37;-1.00;72.70
68922;DHT22;55959;51.244;5.724;2022-12-18T00:16:04;-1.00;72.70
68922;DHT22;55959;51.244;5.724;2022-12-18T00:18:32;-1.00;72.70
68922;DHT22;55959;51.244;5.724;2022-12-18T00:20:59;-1.10;72.60
68922;DHT22;55959;51.244;5.724;2022-12-18T00:23:26;-1.10;72.60
68922;DHT22;55959;51.244;5.724;2022-12-18T00:25:52;-1.10;72.50
68922;DHT22;55959;51.244;5.724;2022-12-18T00:28:18;-1.10;72.30
68922;DHT22;55959;51.244;5.724;2022-12-18T00:30:44;-1.20;72.10
68922;DHT22;55959;51.244;5.724;2022-12-18T00:33:10;-1.20;72.10
68922;DHT22;55959;51.244;5.724;2022-12-18T00:35:36;-1.20;72.20
68922;DHT22;55959;51.244;5.724;2022-12-18T00:38:01;-1.20;72.30
68922;DHT22;55959;51.244;5.724;2022-12-18T00:40:27;-1.30;72.20
68922;DHT22;55959;51.244;5.724;2022-12-18T00:42:53;-1.30;72.10
68922;DHT22;55959;51.244;5.724;2022-12-18T00:45:23;-1.30;72.10
68922;DHT22;55959;51.244;5.724;2022-12-18T00:47:49;-1.40;72.20
68922;DHT22;55959;51.244;5.724;2022-12-18T00:50:15;-1.40;72.30
68922;DHT22;55959;51.244;5.724;2022-12-18T00:52:41;-1.40;73.20
68922;DHT22;55959;51.244;5.724;2022-12-18T00:55:07;-1.40;72.50
68922;DHT22;55959;51.244;5.724;2022-12-18T00:57:33;-1.50;72.50
68922;DHT22;55959;51.244;5.724;2022-12-18T00:59:59;-1.50;72.70
68922;DHT22;55959;51.244;5.724;2022-12-18T01:02:25;-1.50;72.80
68922;DHT22;55959;51.244;5.724;2022-12-18T01:04:50;-1.50;72.90
68922;DHT22;55959;51.244;5.724;2022-12-18T01:07:16;-1.50;73.00
68922;DHT22;55959;51.244;5.724;2022-12-18T01:09:42;-1.50;73.10
68922;DHT22;55959;51.244;5.724;2022-12-18T01:12:08;-1.60;73.10
68922;DHT22;55959;51.244;5.724;2022-12-18T01:14:34;-1.60;73.10
68922;DHT22;55959;51.244;5.724;2022-12-18T01:17:00;-1.60;73.20
68922;DHT22;55959;51.244;5.724;2022-12-18T01:19:28;-1.60;73.20
68922;DHT22;55959;51.244;5.724;2022-12-18T01:21:53;-1.60;73.30
68922;DHT22;55959;51.244;5.724;2022-12-18T01:24:19;-1.60;73.30
68922;DHT22;55959;51.244;5.724;2022-12-18T01:26:45;-1.60;73.30
68922;DHT22;55959;51.244;5.724;2022-12-18T01:29:11;-1.70;73.30
68922;DHT22;55959;51.244;5.724;2022-12-18T01:31:36;-1.70;73.20
68922;DHT22;55959;51.244;5.724;2022-12-18T01:34:04;-1.70;73.30
68922;DHT22;55959;51.244;5.724;2022-12-18T01:36:33;-1.70;73.30
68922;DHT22;55959;51.244;5.724;2022-12-18T01:39:20;-1.70;73.40
68922;DHT22;55959;51.244;5.724;2022-12-18T01:41:46;-1.80;73.30
68922;DHT22;55959;51.244;5.724;2022-12-18T01:50:20;-1.80;73.40
68922;DHT22;55959;51.244;5.724;2022-12-18T01:52:55;-1.80;73.50
68922;DHT22;55959;51.244;5.724;2022-12-18T01:55:30;-1.90;73.50
68922;DHT22;55959;51.244;5.724;2022-12-18T01:57:59;-1.90;73.50
68922;DHT22;55959;51.244;5.724;2022-12-18T02:00:26;-1.90;73.40
68922;DHT22;55959;51.244;5.724;2022-12-18T02:02:53;-1.90;73.40
68922;DHT22;55959;51.244;5.724;2022-12-18T02:08:26;-1.90;73.30
68922;DHT22;55959;51.244;5.724;2022-12-18T02:22:48;-2.00;73.30
68922;DHT22;55959;51.244;5.724;2022-12-18T02:28:15;-2.00;73.30
68922;DHT22;55959;51.244;5.724;2022-12-18T02:30:42;-2.00;73.40
68922;DHT22;55959;51.244;5.724;2022-12-18T02:33:11;-2.10;73.30
68922;DHT22;55959;51.244;5.724;2022-12-18T02:35:40;-2.10;73.40
68922;DHT22;55959;51.244;5.724;2022-12-18T02:38:06;-2.10;73.30
68922;DHT22;55959;51.244;5.724;2022-12-18T02:40:32;-2.10;73.30
68922;DHT22;55959;51.244;5.724;2022-12-18T02:43:13;-2.10;73.30
68922;DHT22;55959;51.244;5.724;2022-12-18T02:46:30;-2.10;73.40
68922;DHT22;55959;51.244;5.724;2022-12-18T02:48:57;-2.10;73.30
68922;DHT22;55959;51.244;5.724;2022-12-18T02:51:40;-2.10;73.20
68922;DHT22;55959;51.244;5.724;2022-12-18T02:57:15;-2.20;73.10
68922;DHT22;55959;51.244;5.724;2022-12-18T03:00:16;-2.20;73.10
68922;DHT22;55959;51.244;5.724;2022-12-18T03:05:38;-2.30;72.90
68922;DHT22;55959;51.244;5.724;2022-12-18T03:08:20;-2.30;72.80
68922;DHT22;55959;51.244;5.724;2022-12-18T03:11:07;-2.30;72.90
68922;DHT22;55959;51.244;5.724;2022-12-18T03:13:43;-2.40;72.90
68922;DHT22;55959;51.244;5.724;2022-12-18T03:16:27;-2.40;73.00
68922;DHT22;55959;51.244;5.724;2022-12-18T03:18:57;-2.40;73.10
68922;DHT22;55959;51.244;5.724;2022-12-18T03:21:51;-2.40;73.20
68922;DHT22;55959;51.244;5.724;2022-12-18T03:24:20;-2.40;73.40
68922;DHT22;55959;51.244;5.724;2022-12-18T03:26:49;-2.50;73.30
68922;DHT22;55959;51.244;5.724;2022-12-18T03:29:20;-2.50;73.50
68922;DHT22;55959;51.244;5.724;2022-12-18T03:31:51;-2.50;73.50
68922;DHT22;55959;51.244;5.724;2022-12-18T03:34:26;-2.50;73.60
68922;DHT22;55959;51.244;5.724;2022-12-18T03:36:55;-2.50;73.70
68922;DHT22;55959;51.244;5.724;2022-12-18T03:39:21;-2.50;73.70
68922;DHT22;55959;51.244;5.724;2022-12-18T03:44:43;-2.50;73.90
68922;DHT22;55959;51.244;5.724;2022-12-18T03:50:22;-2.50;74.90
68922;DHT22;55959;51.244;5.724;2022-12-18T03:55:48;-2.60;74.20
68922;DHT22;55959;51.244;5.724;2022-12-18T03:58:18;-2.60;74.20
68922;DHT22;55959;51.244;5.724;2022-12-18T04:00:46;-2.60;74.20
68922;DHT22;55959;51.244;5.724;2022-12-18T04:03:13;-2.60;74.30
68922;DHT22;55959;51.244;5.724;2022-12-18T04:05:41;-2.60;74.30
68922;DHT22;55959;51.244;5.724;2022-12-18T04:08:07;-2.60;74.30
68922;DHT22;55959;51.244;5.724;2022-12-18T04:10:36;-2.60;74.40
68922;DHT22;55959;51.244;5.724;2022-12-18T04:13:02;-2.60;74.30
68922;DHT22;55959;51.244;5.724;2022-12-18T04:15:28;-2.60;74.20
68922;DHT22;55959;51.244;5.724;2022-12-18T04:17:54;-2.60;74.20
68922;DHT22;55959;51.244;5.724;2022-12-18T04:20:20;-2.60;74.30
68922;DHT22;55959;51.244;5.724;2022-12-18T04:22:46;-2.60;74.30
68922;DHT22;55959;51.244;5.724;2022-12-18T04:25:12;-2.60;74.30
68922;DHT22;55959;51.244;5.724;2022-12-18T04:27:38;-2.60;74.30
68922;DHT22;55959;51.244;5.724;2022-12-18T04:30:04;-2.60;74.40
68922;DHT22;55959;51.244;5.724;2022-12-18T04:32:31;-2.60;75.20
68922;DHT22;55959;51.244;5.724;2022-12-18T04:34:58;-2.60;74.40
68922;DHT22;55959;51.244;5.724;2022-12-18T04:37:24;-2.70;74.40
68922;DHT22;55959;51.244;5.724;2022-12-18T04:39:50;-2.60;74.40
68922;DHT22;55959;51.244;5.724;2022-12-18T04:42:15;-2.60;74.40
68922;DHT22;55959;51.244;5.724;2022-12-18T04:44:41;-2.60;74.30
68922;DHT22;55959;51.244;5.724;2022-12-18T04:47:07;-2.60;74.30
68922;DHT22;55959;51.244;5.724;2022-12-18T04:49:33;-2.70;74.10
68922;DHT22;55959;51.244;5.724;2022-12-18T04:51:58;-2.60;74.20
68922;DHT22;55959;51.244;5.724;2022-12-18T04:54:24;-2.60;74.10
68922;DHT22;55959;51.244;5.724;2022-12-18T04:56:50;-2.60;74.10
68922;DHT22;55959;51.244;5.724;2022-12-18T04:59:16;-2.60;74.00
68922;DHT22;55959;51.244;5.724;2022-12-18T05:01:42;-2.70;73.90
68922;DHT22;55959;51.244;5.724;2022-12-18T05:04:07;-2.60;73.80
68922;DHT22;55959;51.244;5.724;2022-12-18T05:06:33;-2.60;73.80
68922;DHT22;55959;51.244;5.724;2022-12-18T05:08:59;-2.60;73.70
68922;DHT22;55959;51.244;5.724;2022-12-18T05:11:25;-2.70;73.60
68922;DHT22;55959;51.244;5.724;2022-12-18T05:13:51;-2.70;73.50
68922;DHT22;55959;51.244;5.724;2022-12-18T05:16:17;-2.70;73.40
68922;DHT22;55959;51.244;5.724;2022-12-18T05:18:42;-2.70;73.40
68922;DHT22;55959;51.244;5.724;2022-12-18T05:21:08;-2.70;73.20
68922;DHT22;55959;51.244;5.724;2022-12-18T05:23:34;-2.70;73.10
68922;DHT22;55959;51.244;5.724;2022-12-18T05:26:01;-2.80;73.00
68922;DHT22;55959;51.244;5.724;2022-12-18T05:28:29;-2.80;73.20
68922;DHT22;55959;51.244;5.724;2022-12-18T05:30:58;-2.80;73.50
68922;DHT22;55959;51.244;5.724;2022-12-18T05:33:28;-2.90;73.70
68922;DHT22;55959;51.244;5.724;2022-12-18T05:35:57;-2.90;73.80
68922;DHT22;55959;51.244;5.724;2022-12-18T05:38:26;-2.90;74.00
68922;DHT22;55959;51.244;5.724;2022-12-18T05:40:53;-2.90;74.10
68922;DHT22;55959;51.244;5.724;2022-12-18T05:43:20;-2.90;74.10
68922;DHT22;55959;51.244;5.724;2022-12-18T05:45:50;-2.90;74.10
68922;DHT22;55959;51.244;5.724;2022-12-18T05:48:28;-2.90;74.00
68922;DHT22;55959;51.244;5.724;2022-12-18T05:50:53;-2.90;74.10
68922;DHT22;55959;51.244;5.724;2022-12-18T05:53:20;-2.90;74.20
68922;DHT22;55959;51.244;5.724;2022-12-18T05:55:46;-2.90;74.00
68922;DHT22;55959;51.244;5.724;2022-12-18T05:58:13;-2.90;74.10
68922;DHT22;55959;51.244;5.724;2022-12-18T06:00:45;-2.90;74.10
68922;DHT22;55959;51.244;5.724;2022-12-18T06:03:12;-2.90;74.10
68922;DHT22;55959;51.244;5.724;2022-12-18T06:05:41;-2.90;74.10
68922;DHT22;55959;51.244;5.724;2022-12-18T06:08:08;-2.90;74.00
68922;DHT22;55959;51.244;5.724;2022-12-18T06:10:34;-2.90;74.00
68922;DHT22;55959;51.244;5.724;2022-12-18T06:13:00;-2.90;74.20
68922;DHT22;55959;51.244;5.724;2022-12-18T06:15:26;-2.90;74.20
68922;DHT22;55959;51.244;5.724;2022-12-18T06:17:51;-2.90;74.30
68922;DHT22;55959;51.244;5.724;2022-12-18T06:20:17;-2.90;74.40
68922;DHT22;55959;51.244;5.724;2022-12-18T06:22:43;-2.90;74.40
68922;DHT22;55959;51.244;5.724;2022-12-18T06:25:09;-2.90;74.50
68922;DHT22;55959;51.244;5.724;2022-12-18T06:27:36;-2.90;74.50
68922;DHT22;55959;51.244;5.724;2022-12-18T06:30:02;-2.90;74.50
68922;DHT22;55959;51.244;5.724;2022-12-18T06:32:29;-2.90;74.60
68922;DHT22;55959;51.244;5.724;2022-12-18T06:34:54;-2.90;74.50
68922;DHT22;55959;51.244;5.724;2022-12-18T06:37:21;-2.80;74.60
68922;DHT22;55959;51.244;5.724;2022-12-18T06:39:50;-2.90;74.50
68922;DHT22;55959;51.244;5.724;2022-12-18T06:42:15;-2.80;74.50
68922;DHT22;55959;51.244;5.724;2022-12-18T06:44:41;-2.80;74.60
68922;DHT22;55959;51.244;5.724;2022-12-18T06:47:07;-2.80;74.60
68922;DHT22;55959;51.244;5.724;2022-12-18T06:49:32;-2.80;74.70
68922;DHT22;55959;51.244;5.724;2022-12-18T06:51:58;-2.80;74.80
68922;DHT22;55959;51.244;5.724;2022-12-18T06:54:24;-2.80;74.80
68922;DHT22;55959;51.244;5.724;2022-12-18T06:56:49;-2.80;74.90
68922;DHT22;55959;51.244;5.724;2022-12-18T06:59:15;-2.80;74.80
68922;DHT22;55959;51.244;5.724;2022-12-18T07:01:41;-2.80;74.70
68922;DHT22;55959;51.244;5.724;2022-12-18T07:04:07;-2.80;74.60
68922;DHT22;55959;51.244;5.724;2022-12-18T07:06:32;-2.80;74.50
68922;DHT22;55959;51.244;5.724;2022-12-18T07:08:58;-2.80;74.40
68922;DHT22;55959;51.244;5.724;2022-12-18T07:11:24;-2.80;74.30
68922;DHT22;55959;51.244;5.724;2022-12-18T07:13:50;-2.80;74.30
68922;DHT22;55959;51.244;5.724;2022-12-18T07:16:19;-2.80;74.30
68922;DHT22;55959;51.244;5.724;2022-12-18T07:18:45;-2.80;74.30
68922;DHT22;55959;51.244;5.724;2022-12-18T07:21:16;-2.90;74.20
68922;DHT22;55959;51.244;5.724;2022-12-18T07:23:43;-2.90;74.30
68922;DHT22;55959;51.244;5.724;2022-12-18T07:26:13;-2.90;74.20
68922;DHT22;55959;51.244;5.724;2022-12-18T07:28:40;-2.80;74.30
68922;DHT22;55959;51.244;5.724;2022-12-18T07:31:10;-2.90;74.20
68922;DHT22;55959;51.244;5.724;2022-12-18T07:33:38;-2.90;74.20
68922;DHT22;55959;51.244;5.724;2022-12-18T07:36:05;-2.90;74.20
68922;DHT22;55959;51.244;5.724;2022-12-18T07:38:33;-2.90;74.40
68922;DHT22;55959;51.244;5.724;2022-12-18T07:41:03;-2.90;74.50
68922;DHT22;55959;51.244;5.724;2022-12-18T07:43:29;-2.90;74.70
68922;DHT22;55959;51.244;5.724;2022-12-18T07:45:55;-2.90;74.80
68922;DHT22;55959;51.244;5.724;2022-12-18T07:48:21;-2.90;75.00
68922;DHT22;55959;51.244;5.724;2022-12-18T07:50:47;-2.90;75.20
68922;DHT22;55959;51.244;5.724;2022-12-18T07:53:12;-2.90;75.40
68922;DHT22;55959;51.244;5.724;2022-12-18T07:55:40;-2.80;75.60
68922;DHT22;55959;51.244;5.724;2022-12-18T07:58:06;-2.80;75.60
68922;DHT22;55959;51.244;5.724;2022-12-18T08:00:33;-2.80;75.80
68922;DHT22;55959;51.244;5.724;2022-12-18T08:02:59;-2.80;75.90
68922;DHT22;55959;51.244;5.724;2022-12-18T08:05:25;-2.70;76.00
68922;DHT22;55959;51.244;5.724;2022-12-18T08:07:51;-2.70;76.20
68922;DHT22;55959;51.244;5.724;2022-12-18T08:10:18;-2.60;76.30
68922;DHT22;55959;51.244;5.724;2022-12-18T08:12:43;-2.60;76.40
68922;DHT22;55959;51.244;5.724;2022-12-18T08:15:09;-2.60;76.50
68922;DHT22;55959;51.244;5.724;2022-12-18T08:17:35;-2.50;76.70
68922;DHT22;55959;51.244;5.724;2022-12-18T08:20:01;-2.50;76.70
68922;DHT22;55959;51.244;5.724;2022-12-18T08:22:27;-2.50;76.80
68922;DHT22;55959;51.244;5.724;2022-12-18T08:24:52;-2.50;76.90
68922;DHT22;55959;51.244;5.724;2022-12-18T08:27:18;-2.40;77.10
68922;DHT22;55959;51.244;5.724;2022-12-18T08:29:44;-2.30;77.20
68922;DHT22;55959;51.244;5.724;2022-12-18T08:32:10;-2.30;77.30
68922;DHT22;55959;51.244;5.724;2022-12-18T08:34:35;-2.20;77.40
68922;DHT22;55959;51.244;5.724;2022-12-18T08:37:01;-2.20;77.40
68922;DHT22;55959;51.244;5.724;2022-12-18T08:39:27;-2.20;77.40
68922;DHT22;55959;51.244;5.724;2022-12-18T08:41:52;-2.10;77.50
68922;DHT22;55959;51.244;5.724;2022-12-18T08:44:36;-2.00;77.60
68922;DHT22;55959;51.244;5.724;2022-12-18T08:47:02;-2.00;77.50
68922;DHT22;55959;51.244;5.724;2022-12-18T08:49:28;-1.90;77.60
68922;DHT22;55959;51.244;5.724;2022-12-18T08:51:55;-1.90;77.50
68922;DHT22;55959;51.244;5.724;2022-12-18T08:54:23;-1.90;77.60
68922;DHT22;55959;51.244;5.724;2022-12-18T08:56:49;-1.80;77.60
68922;DHT22;55959;51.244;5.724;2022-12-18T08:59:18;-1.80;77.60
68922;DHT22;55959;51.244;5.724;2022-12-18T09:01:44;-1.70;77.70
68922;DHT22;55959;51.244;5.724;2022-12-18T09:04:11;-1.70;77.70
68922;DHT22;55959;51.244;5.724;2022-12-18T09:06:37;-1.60;77.80
68922;DHT22;55959;51.244;5.724;2022-12-18T09:09:04;-1.50;77.90
68922;DHT22;55959;51.244;5.724;2022-12-18T09:11:31;-1.50;78.00
68922;DHT22;55959;51.244;5.724;2022-12-18T09:13:57;-1.40;78.10
68922;DHT22;55959;51.244;5.724;2022-12-18T09:16:25;-1.40;78.10
68922;DHT22;55959;51.244;5.724;2022-12-18T09:18:56;-1.30;78.10
68922;DHT22;55959;51.244;5.724;2022-12-18T09:21:26;-1.30;78.10
68922;DHT22;55959;51.244;5.724;2022-12-18T09:23:54;-1.20;78.10
68922;DHT22;55959;51.244;5.724;2022-12-18T09:26:21;-1.10;78.10
68922;DHT22;55959;51.244;5.724;2022-12-18T09:28:48;-1.10;78.10
68922;DHT22;55959;51.244;5.724;2022-12-18T09:31:14;-1.00;78.10
68922;DHT22;55959;51.244;5.724;2022-12-18T09:33:41;-1.00;78.10
68922;DHT22;55959;51.244;5.724;2022-12-18T09:36:08;-0.90;78.10
68922;DHT22;55959;51.244;5.724;2022-12-18T09:38:36;-0.80;78.10
68922;DHT22;55959;51.244;5.724;2022-12-18T09:50:02;-0.60;78.00
68922;DHT22;55959;51.244;5.724;2022-12-18T09:52:39;-0.60;78.00
68922;DHT22;55959;51.244;5.724;2022-12-18T09:58:02;-0.40;78.10
68922;DHT22;55959;51.244;5.724;2022-12-18T10:00:31;-0.40;78.00
68922;DHT22;55959;51.244;5.724;2022-12-18T10:03:12;-0.30;78.00
68922;DHT22;55959;51.244;5.724;2022-12-18T10:14:00;-0.10;77.80
68922;DHT22;55959;51.244;5.724;2022-12-18T10:22:57;0.10;77.60
68922;DHT22;55959;51.244;5.724;2022-12-18T10:28:21;0.20;77.40
68922;DHT22;55959;51.244;5.724;2022-12-18T10:30:47;0.30;77.30
68922;DHT22;55959;51.244;5.724;2022-12-18T10:33:23;0.30;77.20
68922;DHT22;55959;51.244;5.724;2022-12-18T10:35:53;0.40;77.10
68922;DHT22;55959;51.244;5.724;2022-12-18T10:38:29;0.40;76.90
68922;DHT22;55959;51.244;5.724;2022-12-18T10:43:31;0.50;76.60
68922;DHT22;55959;51.244;5.724;2022-12-18T10:48:28;0.70;76.40
68922;DHT22;55959;51.244;5.724;2022-12-18T10:50:56;0.70;76.20
68922;DHT22;55959;51.244;5.724;2022-12-18T10:53:24;0.80;76.00
68922;DHT22;55959;51.244;5.724;2022-12-18T10:55:54;0.80;75.70
68922;DHT22;55959;51.244;5.724;2022-12-18T11:01:15;0.90;75.40
68922;DHT22;55959;51.244;5.724;2022-12-18T11:03:44;1.00;75.30
68922;DHT22;55959;51.244;5.724;2022-12-18T11:06:17;1.00;75.00
68922;DHT22;55959;51.244;5.724;2022-12-18T11:09:17;1.00;74.90
68922;DHT22;55959;51.244;5.724;2022-12-18T11:12:00;1.10;74.80
68922;DHT22;55959;51.244;5.724;2022-12-18T11:14:32;1.10;74.60
68922;DHT22;55959;51.244;5.724;2022-12-18T11:17:00;1.20;74.40
68922;DHT22;55959;51.244;5.724;2022-12-18T11:19:32;1.20;74.20
68922;DHT22;55959;51.244;5.724;2022-12-18T11:22:01;1.20;74.00
68922;DHT22;55959;51.244;5.724;2022-12-18T11:24:31;1.30;73.90
68922;DHT22;55959;51.244;5.724;2022-12-18T11:27:02;1.30;73.80
68922;DHT22;55959;51.244;5.724;2022-12-18T11:29:39;1.40;73.60
68922;DHT22;55959;51.244;5.724;2022-12-18T11:32:37;1.40;73.40
68922;DHT22;55959;51.244;5.724;2022-12-18T11:35:17;1.40;73.20
68922;DHT22;55959;51.244;5.724;2022-12-18T11:37:56;1.50;73.20
68922;DHT22;55959;51.244;5.724;2022-12-18T11:40:33;1.50;73.10
68922;DHT22;55959;51.244;5.724;2022-12-18T11:43:22;1.50;72.90
68922;DHT22;55959;51.244;5.724;2022-12-18T11:46:13;1.60;73.00
68922;DHT22;55959;51.244;5.724;2022-12-18T11:49:03;1.70;72.90
68922;DHT22;55959;51.244;5.724;2022-12-18T11:51:38;1.70;72.80
68922;DHT22;55959;51.244;5.724;2022-12-18T11:54:13;1.70;73.50
68922;DHT22;55959;51.244;5.724;2022-12-18T11:56:48;1.80;72.50
68922;DHT22;55959;51.244;5.724;2022-12-18T12:10:46;1.90;71.90
68922;DHT22;55959;51.244;5.724;2022-12-18T12:14:01;2.00;71.80
68922;DHT22;55959;51.244;5.724;2022-12-18T12:19:32;2.00;71.60
68922;DHT22;55959;51.244;5.724;2022-12-18T12:25:21;2.20;71.50
68922;DHT22;55959;51.244;5.724;2022-12-18T12:30:56;2.20;71.40
68922;DHT22;55959;51.244;5.724;2022-12-18T12:39:16;2.30;70.60
68922;DHT22;55959;51.244;5.724;2022-12-18T12:41:45;2.30;70.30
68922;DHT22;55959;51.244;5.724;2022-12-18T12:44:34;2.40;70.40
68922;DHT22;55959;51.244;5.724;2022-12-18T12:47:16;2.40;70.20
68922;DHT22;55959;51.244;5.724;2022-12-18T12:49:45;2.50;70.00
68922;DHT22;55959;51.244;5.724;2022-12-18T12:53:01;2.50;70.00
68922;DHT22;55959;51.244;5.724;2022-12-18T12:55:16;2.60;70.00
68922;DHT22;55959;51.244;5.724;2022-12-18T12:58:23;2.60;69.70
68922;DHT22;55959;51.244;5.724;2022-12-18T13:01:08;2.60;69.60
68922;DHT22;55959;51.244;5.724;2022-12-18T13:04:00;2.60;69.30
68922;DHT22;55959;51.244;5.724;2022-12-18T13:06:50;2.60;69.40
68922;DHT22;55959;51.244;5.724;2022-12-18T13:09:24;2.70;69.60
68922;DHT22;55959;51.244;5.724;2022-12-18T13:11:49;2.70;69.30
68922;DHT22;55959;51.244;5.724;2022-12-18T13:14:40;2.70;69.30
68922;DHT22;55959;51.244;5.724;2022-12-18T13:19:55;2.80;68.80
68922;DHT22;55959;51.244;5.724;2022-12-18T13:25:28;2.80;68.60
68922;DHT22;55959;51.244;5.724;2022-12-18T13:28:05;2.90;68.40
68922;DHT22;55959;51.244;5.724;2022-12-18T13:40:58;3.00;68.20
68922;DHT22;55959;51.244;5.724;2022-12-18T13:43:53;3.00;68.00
68922;DHT22;55959;51.244;5.724;2022-12-18T13:46:43;3.10;68.90
68922;DHT22;55959;51.244;5.724;2022-12-18T13:51:49;3.10;67.70
68922;DHT22;55959;51.244;5.724;2022-12-18T13:54:36;3.10;67.60
68922;DHT22;55959;51.244;5.724;2022-12-18T13:57:05;3.10;67.50
68922;DHT22;55959;51.244;5.724;2022-12-18T13:59:48;3.20;67.60
68922;DHT22;55959;51.244;5.724;2022-12-18T14:02:16;3.20;67.70
68922;DHT22;55959;51.244;5.724;2022-12-18T14:04:49;3.20;67.70
68922;DHT22;55959;51.244;5.724;2022-12-18T14:09:52;3.30;67.20
68922;DHT22;55959;51.244;5.724;2022-12-18T14:12:29;3.30;67.30
68922;DHT22;55959;51.244;5.724;2022-12-18T14:17:56;3.30;67.20
68922;DHT22;55959;51.244;5.724;2022-12-18T14:20:35;3.30;67.00
68922;DHT22;55959;51.244;5.724;2022-12-18T14:23:01;3.30;66.80
68922;DHT22;55959;51.244;5.724;2022-12-18T14:25:28;3.30;66.90
68922;DHT22;55959;51.244;5.724;2022-12-18T14:33:08;3.40;66.80
68922;DHT22;55959;51.244;5.724;2022-12-18T14:35:40;3.40;66.90
68922;DHT22;55959;51.244;5.724;2022-12-18T14:38:47;3.40;66.70
68922;DHT22;55959;51.244;5.724;2022-12-18T14:41:11;3.40;66.80
68922;DHT22;55959;51.244;5.724;2022-12-18T14:43:40;3.50;66.60
68922;DHT22;55959;51.244;5.724;2022-12-18T14:48:59;3.50;66.60
68922;DHT22;55959;51.244;5.724;2022-12-18T14:51:30;3.50;66.60
68922;DHT22;55959;51.244;5.724;2022-12-18T14:59:17;3.50;66.50
68922;DHT22;55959;51.244;5.724;2022-12-18T15:04:31;3.60;66.60
68922;DHT22;55959;51.244;5.724;2022-12-18T15:09:40;3.50;66.20
68922;DHT22;55959;51.244;5.724;2022-12-18T15:12:27;3.60;66.30
68922;DHT22;55959;51.244;5.724;2022-12-18T15:15:02;3.50;66.20
68922;DHT22;55959;51.244;5.724;2022-12-18T15:17:29;3.60;66.40
68922;DHT22;55959;51.244;5.724;2022-12-18T15:20:01;3.60;66.40
68922;DHT22;55959;51.244;5.724;2022-12-18T15:22:34;3.60;66.40
68922;DHT22;55959;51.244;5.724;2022-12-18T15:25:00;3.60;66.30
68922;DHT22;55959;51.244;5.724;2022-12-18T15:27:33;3.60;66.00
68922;DHT22;55959;51.244;5.724;2022-12-18T15:32:36;3.60;65.70
68922;DHT22;55959;51.244;5.724;2022-12-18T15:35:15;3.60;65.60
68922;DHT22;55959;51.244;5.724;2022-12-18T15:37:43;3.60;65.50
68922;DHT22;55959;51.244;5.724;2022-12-18T15:40:17;3.50;65.30
68922;DHT22;55959;51.244;5.724;2022-12-18T15:42:48;3.50;65.30
68922;DHT22;55959;51.244;5.724;2022-12-18T15:45:32;3.50;65.40
68922;DHT22;55959;51.244;5.724;2022-12-18T15:47:58;3.50;65.20
68922;DHT22;55959;51.244;5.724;2022-12-18T15:50:25;3.50;65.40
68922;DHT22;55959;51.244;5.724;2022-12-18T15:52:52;3.50;65.40
68922;DHT22;55959;51.244;5.724;2022-12-18T15:55:21;3.50;65.40
68922;DHT22;55959;51.244;5.724;2022-12-18T15:58:09;3.50;65.40
68922;DHT22;55959;51.244;5.724;2022-12-18T16:00:37;3.50;65.40
68922;DHT22;55959;51.244;5.724;2022-12-18T16:03:04;3.50;65.40
68922;DHT22;55959;51.244;5.724;2022-12-18T16:05:31;3.40;65.30
68922;DHT22;55959;51.244;5.724;2022-12-18T16:07:57;3.50;65.30
68922;DHT22;55959;51.244;5.724;2022-12-18T16:10:25;3.50;65.40
68922;DHT22;55959;51.244;5.724;2022-12-18T16:12:51;3.50;65.40
68922;DHT22;55959;51.244;5.724;2022-12-18T16:15:17;3.50;65.50
68922;DHT22;55959;51.244;5.724;2022-12-18T16:17:44;3.50;65.60
68922;DHT22;55959;51.244;5.724;2022-12-18T16:20:19;3.50;65.70
68922;DHT22;55959;51.244;5.724;2022-12-18T16:22:47;3.50;65.60
68922;DHT22;55959;51.244;5.724;2022-12-18T16:25:19;3.50;65.60
68922;DHT22;55959;51.244;5.724;2022-12-18T16:27:48;3.50;65.60
68922;DHT22;55959;51.244;5.724;2022-12-18T16:30:15;3.50;65.60
68922;DHT22;55959;51.244;5.724;2022-12-18T16:32:43;3.50;65.60
68922;DHT22;55959;51.244;5.724;2022-12-18T16:35:13;3.50;65.50
68922;DHT22;55959;51.244;5.724;2022-12-18T16:37:40;3.50;65.40
68922;DHT22;55959;51.244;5.724;2022-12-18T16:40:08;3.50;65.50
68922;DHT22;55959;51.244;5.724;2022-12-18T16:42:37;3.50;65.60
68922;DHT22;55959;51.244;5.724;2022-12-18T16:45:06;3.50;65.60
68922;DHT22;55959;51.244;5.724;2022-12-18T16:47:33;3.50;65.60
68922;DHT22;55959;51.244;5.724;2022-12-18T16:49:59;3.50;65.60
68922;DHT22;55959;51.244;5.724;2022-12-18T16:52:25;3.50;65.60
68922;DHT22;55959;51.244;5.724;2022-12-18T16:54:51;3.50;65.60
68922;DHT22;55959;51.244;5.724;2022-12-18T16:57:18;3.50;66.40
68922;DHT22;55959;51.244;5.724;2022-12-18T16:59:45;3.50;65.50
68922;DHT22;55959;51.244;5.724;2022-12-18T17:02:16;3.50;66.40
68922;DHT22;55959;51.244;5.724;2022-12-18T17:04:46;3.50;65.50
68922;DHT22;55959;51.244;5.724;2022-12-18T17:07:13;3.50;65.60
68922;DHT22;55959;51.244;5.724;2022-12-18T17:09:39;3.50;65.60
68922;DHT22;55959;51.244;5.724;2022-12-18T17:12:06;3.40;65.40
68922;DHT22;55959;51.244;5.724;2022-12-18T17:14:32;3.40;65.60
68922;DHT22;55959;51.244;5.724;2022-12-18T17:16:59;3.50;65.60
68922;DHT22;55959;51.244;5.724;2022-12-18T17:19:25;3.40;65.60
68922;DHT22;55959;51.244;5.724;2022-12-18T17:21:51;3.40;65.60
68922;DHT22;55959;51.244;5.724;2022-12-18T17:24:18;3.50;65.80
68922;DHT22;55959;51.244;5.724;2022-12-18T17:26:45;3.50;65.80
68922;DHT22;55959;51.244;5.724;2022-12-18T17:29:18;3.50;65.80
68922;DHT22;55959;51.244;5.724;2022-12-18T17:31:45;3.50;65.80
68922;DHT22;55959;51.244;5.724;2022-12-18T17:34:11;3.50;65.90
68922;DHT22;55959;51.244;5.724;2022-12-18T17:36:38;3.50;65.90
68922;DHT22;55959;51.244;5.724;2022-12-18T17:39:05;3.50;66.40
68922;DHT22;55959;51.244;5.724;2022-12-18T17:41:32;3.50;66.20
68922;DHT22;55959;51.244;5.724;2022-12-18T17:44:01;3.50;66.20
68922;DHT22;55959;51.244;5.724;2022-12-18T17:46:30;3.50;66.20
68922;DHT22;55959;51.244;5.724;2022-12-18T17:48:58;3.50;66.40
68922;DHT22;55959;51.244;5.724;2022-12-18T17:51:25;3.60;66.30
68922;DHT22;55959;51.244;5.724;2022-12-18T17:53:51;3.60;66.30
68922;DHT22;55959;51.244;5.724;2022-12-18T17:56:19;3.60;67.00
68922;DHT22;55959;51.244;5.724;2022-12-18T17:58:46;3.60;66.30
68922;DHT22;55959;51.244;5.724;2022-12-18T18:01:14;3.60;66.30
68922;DHT22;55959;51.244;5.724;2022-12-18T18:03:42;3.60;66.30
68922;DHT22;55959;51.244;5.724;2022-12-18T18:06:08;3.60;66.30
68922;DHT22;55959;51.244;5.724;2022-12-18T18:08:35;3.60;66.30
68922;DHT22;55959;51.244;5.724;2022-12-18T18:11:05;3.60;66.20
68922;DHT22;55959;51.244;5.724;2022-12-18T18:13:51;3.60;66.20
68922;DHT22;55959;51.244;5.724;2022-12-18T18:16:42;3.60;66.30
68922;DHT22;55959;51.244;5.724;2022-12-18T18:19:11;3.60;66.40
68922;DHT22;55959;51.244;5.724;2022-12-18T18:21:40;3.60;66.40
68922;DHT22;55959;51.244;5.724;2022-12-18T18:24:08;3.60;66.60
68922;DHT22;55959;51.244;5.724;2022-12-18T18:26:34;3.60;66.60